Time;durP1;ratioP1;P1;durP2;ratioP2;P2;SDS_P1;SDS_P2;PMS_P1;PMS_P2;Temp;Humidity;BMP_temperature;BMP_pressure;BME280_temperature;BME280_humidity;BME280_pressure;Samples;Min_cycle;Max_cycle;Signal;HPM_P1;HPM_P2
2022/03/25 00:00:47;;;;;;;51.15;31.50;;;10.10;99.90;;;;;;6278089;22;20214;-72
2022/03/25 00:03:14;;;;;;;51.50;32.70;;;10.00;99.90;;;;;;6278749;22;20601;-72
2022/03/25 00:05:41;;;;;;;49.72;30.77;;;10.00;99.90;;;;;;6278762;22;20163;-72
2022/03/25 00:08:08;;;;;;;45.47;30.75;;;10.10;99.90;;;;;;6279362;22;20186;-72
2022/03/25 00:10:35;;;;;;;48.45;34.35;;;10.00;99.90;;;;;;6278678;22;20154;-72
2022/03/25 00:13:05;;;;;;;55.42;34.67;;;10.00;99.90;;;;;;6279139;22;20162;-72
2022/03/25 00:15:32;;;;;;;54.22;34.75;;;10.00;99.90;;;;;;6279159;22;20165;-73
2022/03/25 00:17:59;;;;;;;52.10;34.00;;;10.00;99.90;;;;;;6279001;22;20170;-72
2022/03/25 00:20:26;;;;;;;57.17;35.35;;;10.00;99.90;;;;;;6278082;22;20190;-72
2022/03/25 00:22:53;;;;;;;52.97;33.33;;;9.90;99.90;;;;;;6278591;22;20163;-72
2022/03/25 00:25:20;;;;;;;52.33;35.13;;;9.90;99.90;;;;;;6278700;22;20260;-73
2022/03/25 00:27:47;;;;;;;55.17;33.78;;;9.80;99.90;;;;;;6278891;22;20166;-73
2022/03/25 00:30:16;;;;;;;58.15;35.95;;;9.80;99.90;;;;;;6278759;22;20238;-73
2022/03/25 00:32:43;;;;;;;59.05;36.78;;;9.70;99.90;;;;;;6278787;22;20163;-73
2022/03/25 00:35:11;;;;;;;50.97;36.65;;;9.70;99.90;;;;;;6278880;22;20252;-72
2022/03/25 00:37:38;;;;;;;56.67;35.83;;;9.60;99.90;;;;;;6285359;22;20171;-72
2022/03/25 00:40:07;;;;;;;62.33;38.45;;;9.60;99.90;;;;;;6292285;22;20170;-72
2022/03/25 00:42:35;;;;;;;60.80;37.72;;;9.50;99.90;;;;;;6282862;22;20241;-73
2022/03/25 00:45:05;;;;;;;66.40;37.03;;;9.40;99.90;;;;;;6277359;22;20241;-73
2022/03/25 00:47:33;;;;;;;60.97;37.75;;;9.50;99.90;;;;;;6277945;22;20166;-73
2022/03/25 00:50:00;;;;;;;64.93;40.88;;;9.50;99.90;;;;;;6276623;22;20167;-73
2022/03/25 00:52:27;;;;;;;58.95;37.28;;;9.30;99.90;;;;;;6277014;22;20201;-72
2022/03/25 00:54:54;;;;;;;59.83;37.83;;;9.30;99.90;;;;;;6277218;22;20194;-72
2022/03/25 00:57:21;;;;;;;65.78;38.40;;;9.30;99.90;;;;;;6277458;22;20158;-73
2022/03/25 00:59:48;;;;;;;65.50;40.10;;;9.20;99.90;;;;;;6275961;22;20190;-73
2022/03/25 01:02:15;;;;;;;63.25;38.60;;;9.20;99.90;;;;;;6276708;22;20232;-74
2022/03/25 01:04:43;;;;;;;59.17;40.03;;;9.10;99.90;;;;;;6276488;22;20190;-72
2022/03/25 01:07:10;;;;;;;66.32;38.58;;;9.00;99.90;;;;;;6277028;22;20584;-71
2022/03/25 01:09:37;;;;;;;70.53;40.20;;;9.00;99.90;;;;;;6275411;22;20530;-71
2022/03/25 01:12:06;;;;;;;68.72;41.63;;;8.90;99.90;;;;;;6277464;22;20158;-72
2022/03/25 01:14:33;;;;;;;63.53;39.13;;;8.80;99.90;;;;;;6277093;22;20532;-72
2022/03/25 01:17:00;;;;;;;67.20;40.13;;;8.80;99.90;;;;;;6276961;22;20665;-72
2022/03/25 01:19:28;;;;;;;72.78;43.88;;;8.80;99.90;;;;;;6277020;22;20167;-71
2022/03/25 01:21:57;;;;;;;61.70;37.95;;;8.80;99.90;;;;;;6276631;22;20202;-73
2022/03/25 01:24:24;;;;;;;65.38;41.28;;;8.80;99.90;;;;;;6277105;22;20316;-72
2022/03/25 01:26:51;;;;;;;64.95;41.22;;;8.80;99.90;;;;;;6277044;22;20594;-72
2022/03/25 01:29:19;;;;;;;60.38;40.60;;;8.80;99.90;;;;;;6277233;22;20239;-72
2022/03/25 01:31:46;;;;;;;63.55;38.55;;;8.70;99.90;;;;;;6274405;22;20549;-72
2022/03/25 01:34:13;;;;;;;70.90;39.00;;;8.70;99.90;;;;;;6278357;22;20255;-73
2022/03/25 01:36:40;;;;;;;61.50;42.00;;;8.70;99.90;;;;;;6276712;22;20337;-71
2022/03/25 01:39:08;;;;;;;64.57;41.08;;;8.70;99.90;;;;;;6276426;22;20166;-71
2022/03/25 01:41:35;;;;;;;69.10;40.03;;;8.70;99.90;;;;;;6276580;22;20214;-73
2022/03/25 01:44:04;;;;;;;62.88;38.70;;;8.70;99.90;;;;;;6276399;22;20229;-72
2022/03/25 01:46:32;;;;;;;62.83;41.42;;;8.60;99.90;;;;;;6276108;22;20238;-72
2022/03/25 01:48:59;;;;;;;75.50;42.78;;;8.60;99.90;;;;;;6276691;22;20166;-72
2022/03/25 01:51:29;;;;;;;65.05;39.78;;;8.60;99.90;;;;;;6276237;22;20602;-71
2022/03/25 01:54:20;;;;;;;68.38;41.67;;;8.50;99.90;;;;;;6276089;22;20583;-72
2022/03/25 01:56:53;;;;;;;79.90;45.20;;;8.50;99.90;;;;;;6277791;22;20196;-73
2022/03/25 01:59:20;;;;;;;66.75;40.33;;;8.50;99.90;;;;;;6277264;22;20239;-71
2022/03/25 02:01:51;;;;;;;67.25;36.55;;;8.40;99.90;;;;;;6276818;22;20261;-72
2022/03/25 02:04:18;;;;;;;70.20;42.17;;;8.50;99.90;;;;;;6277535;22;20202;-72
2022/03/25 02:06:46;;;;;;;66.32;41.72;;;8.50;99.90;;;;;;6277191;22;20181;-72
2022/03/25 02:09:14;;;;;;;70.40;40.55;;;8.50;99.90;;;;;;6276261;22;20166;-72
2022/03/25 02:11:42;;;;;;;76.53;44.30;;;8.50;99.90;;;;;;6275877;22;20162;-72
2022/03/25 02:14:09;;;;;;;68.00;40.08;;;8.50;99.90;;;;;;6276502;22;20574;-72
2022/03/25 02:16:38;;;;;;;68.10;42.80;;;8.50;99.90;;;;;;6277152;22;20197;-72
2022/03/25 02:19:05;;;;;;;73.45;42.80;;;8.50;99.90;;;;;;6276951;22;20223;-72
2022/03/25 02:21:34;;;;;;;71.30;41.45;;;8.50;99.90;;;;;;6275307;22;20224;-72
2022/03/25 02:24:02;;;;;;;79.03;42.95;;;8.50;99.90;;;;;;6276233;22;20734;-72
2022/03/25 02:26:29;;;;;;;75.45;43.30;;;8.50;99.90;;;;;;6278973;22;20231;-72
2022/03/25 02:28:57;;;;;;;73.07;45.47;;;8.40;99.90;;;;;;6285735;22;20163;-71
2022/03/25 02:31:24;;;;;;;69.22;43.03;;;8.40;99.90;;;;;;6283726;22;20487;-72
2022/03/25 02:33:53;;;;;;;78.68;45.25;;;8.30;99.90;;;;;;6275486;22;20255;-72
2022/03/25 02:36:19;;;;;;;76.88;47.70;;;8.30;99.90;;;;;;6276555;22;20543;-72
2022/03/25 02:38:48;;;;;;;70.85;40.95;;;8.20;99.90;;;;;;6276682;22;20166;-72
2022/03/25 02:41:15;;;;;;;65.55;43.45;;;8.10;99.90;;;;;;6275371;22;20182;-72
2022/03/25 02:43:42;;;;;;;74.90;45.13;;;8.20;99.90;;;;;;6276450;22;20537;-72
2022/03/25 02:46:09;;;;;;;66.32;41.00;;;8.10;99.90;;;;;;6276364;22;20237;-72
2022/03/25 02:48:36;;;;;;;79.20;44.75;;;8.10;99.90;;;;;;6276166;22;20165;-72
2022/03/25 02:51:04;;;;;;;70.38;42.22;;;8.10;99.90;;;;;;6276015;22;20192;-72
2022/03/25 02:53:31;;;;;;;71.55;43.65;;;8.10;99.90;;;;;;6275840;22;20224;-71
2022/03/25 02:55:59;;;;;;;79.25;45.53;;;8.00;99.90;;;;;;6276888;22;20166;-71
2022/03/25 02:58:26;;;;;;;84.38;47.38;;;8.00;99.90;;;;;;6277563;22;20207;-70
2022/03/25 03:00:53;;;;;;;77.97;44.67;;;8.00;99.90;;;;;;6277093;22;20193;-72
2022/03/25 03:03:21;;;;;;;88.90;51.65;;;8.00;99.90;;;;;;6281401;22;20196;-73
2022/03/25 03:05:48;;;;;;;73.10;42.92;;;8.00;99.90;;;;;;6288728;22;20184;-72
2022/03/25 03:08:15;;;;;;;82.03;48.15;;;8.00;99.90;;;;;;6292577;22;20165;-72
2022/03/25 03:10:43;;;;;;;96.95;50.17;;;8.00;99.90;;;;;;6292484;22;20166;-72
2022/03/25 03:13:13;;;;;;;65.95;44.72;;;7.90;99.90;;;;;;6281698;22;20197;-72
2022/03/25 03:15:40;;;;;;;78.65;45.00;;;7.90;99.90;;;;;;6276007;22;20256;-72
2022/03/25 03:18:07;;;;;;;77.85;44.53;;;7.90;99.90;;;;;;6276383;22;20172;-72
2022/03/25 03:20:34;;;;;;;76.75;45.70;;;7.90;99.90;;;;;;6275041;22;20246;-72
2022/03/25 03:23:01;;;;;;;77.75;46.13;;;7.90;99.90;;;;;;6275096;22;20208;-72
2022/03/25 03:25:28;;;;;;;71.28;46.80;;;7.80;99.90;;;;;;6276154;22;20315;-72
2022/03/25 03:27:56;;;;;;;73.45;45.42;;;7.90;99.90;;;;;;6275681;22;20244;-72
2022/03/25 03:30:25;;;;;;;76.20;45.08;;;8.00;99.90;;;;;;6274934;22;20197;-72
2022/03/25 03:32:55;;;;;;;67.85;42.17;;;7.90;99.90;;;;;;6276046;22;20492;-72
2022/03/25 03:35:23;;;;;;;71.35;44.22;;;7.90;99.90;;;;;;6275644;22;20201;-72
2022/03/25 03:37:50;;;;;;;76.93;47.20;;;7.90;99.90;;;;;;6276208;22;20597;-72
2022/03/25 03:40:17;;;;;;;72.00;46.40;;;7.90;99.90;;;;;;6275276;22;20165;-72
2022/03/25 03:42:44;;;;;;;73.28;45.97;;;7.90;99.90;;;;;;6275389;22;20181;-71
2022/03/25 03:45:13;;;;;;;76.32;44.28;;;7.90;99.90;;;;;;6275960;22;20578;-72
2022/03/25 03:47:43;;;;;;;80.18;48.40;;;7.80;99.90;;;;;;6277365;22;20168;-72
2022/03/25 03:50:12;;;;;;;76.80;46.03;;;7.80;99.90;;;;;;6274765;22;20244;-72
2022/03/25 04:02:16;;;;;;;68.75;43.55;;;7.70;99.90;;;;;;6261064;22;20231;-83
2022/03/25 04:08:47;;;;;;;68.95;44.95;;;7.70;99.90;;;;;;6231560;22;20179;-82
2022/03/25 04:11:18;;;;;;;69.90;41.47;;;7.80;99.90;;;;;;6193614;22;20177;-83
2022/03/25 04:13:45;;;;;;;74.47;45.55;;;7.80;99.90;;;;;;6267597;22;20193;-80
2022/03/25 04:16:12;;;;;;;78.40;47.83;;;7.70;99.90;;;;;;6269049;22;20227;-80
2022/03/25 04:18:39;;;;;;;71.20;42.95;;;7.70;99.90;;;;;;6268563;22;20154;-82
2022/03/25 04:21:06;;;;;;;82.22;45.63;;;7.60;99.90;;;;;;6269926;22;20183;-85
2022/03/25 04:23:35;;;;;;;80.32;47.72;;;7.60;99.90;;;;;;6267300;22;20201;-84
2022/03/25 04:26:02;;;;;;;71.30;44.22;;;7.50;99.90;;;;;;6266524;22;20199;-84
2022/03/25 04:28:47;;;;;;;76.30;44.30;;;7.50;99.90;;;;;;6264966;23;20181;-84
2022/03/25 04:31:14;;;;;;;75.97;44.10;;;7.50;99.90;;;;;;6272210;22;20170;-81
2022/03/25 04:33:41;;;;;;;90.72;47.30;;;7.50;99.90;;;;;;6274692;22;20180;-81
2022/03/25 04:36:09;;;;;;;70.25;42.38;;;7.50;99.90;;;;;;6274564;22;20179;-82
2022/03/25 04:38:36;;;;;;;80.65;48.47;;;7.50;99.90;;;;;;6274388;22;20160;-81
2022/03/25 04:41:04;;;;;;;71.03;41.63;;;7.50;99.90;;;;;;6272819;22;20174;-83
2022/03/25 04:43:32;;;;;;;76.47;45.38;;;7.50;99.90;;;;;;6259277;22;20598;-83
2022/03/25 04:46:01;;;;;;;74.25;45.55;;;7.50;99.90;;;;;;6263049;22;20184;-85
2022/03/25 04:48:28;;;;;;;71.53;46.72;;;7.50;99.90;;;;;;6263585;23;20233;-86
2022/03/25 04:50:55;;;;;;;82.25;47.65;;;7.40;99.90;;;;;;6264251;23;20181;-85
2022/03/25 04:53:22;;;;;;;79.80;46.40;;;7.40;99.90;;;;;;6263318;22;20225;-84
2022/03/25 04:55:49;;;;;;;79.03;46.20;;;7.50;99.90;;;;;;6263441;23;20218;-86
2022/03/25 04:58:16;;;;;;;80.72;47.58;;;7.50;99.90;;;;;;6261867;23;20232;-85
2022/03/25 05:00:43;;;;;;;79.88;49.45;;;7.40;99.90;;;;;;6261655;22;20178;-85
2022/03/25 05:03:11;;;;;;;84.55;49.70;;;7.40;99.90;;;;;;6268109;22;20471;-83
2022/03/25 05:05:42;;;;;;;75.88;45.42;;;7.40;99.90;;;;;;6272915;22;20184;-84
2022/03/25 05:08:09;;;;;;;72.07;44.20;;;7.40;99.90;;;;;;6271788;22;20168;-85
2022/03/25 05:10:37;;;;;;;82.47;48.15;;;7.40;99.90;;;;;;6266417;23;20205;-83
2022/03/25 05:13:04;;;;;;;79.57;47.60;;;7.40;99.90;;;;;;6266361;22;20200;-82
2022/03/25 05:15:32;;;;;;;76.28;49.40;;;7.40;99.90;;;;;;6266318;23;20185;-84
2022/03/25 05:17:59;;;;;;;77.60;45.30;;;7.40;99.90;;;;;;6267320;22;20162;-86
2022/03/25 05:20:27;;;;;;;86.53;52.10;;;7.30;99.90;;;;;;6267819;23;20181;-83
2022/03/25 05:22:54;;;;;;;72.97;47.33;;;7.30;99.90;;;;;;6269277;22;20210;-83
2022/03/25 05:25:22;;;;;;;90.53;48.63;;;7.30;99.90;;;;;;6262974;23;20247;-85
2022/03/25 05:27:51;;;;;;;84.70;49.42;;;7.50;99.90;;;;;;6256703;23;20179;-85
2022/03/25 05:30:20;;;;;;;86.25;46.33;;;7.50;99.90;;;;;;6262606;22;20591;-84
2022/03/25 05:32:48;;;;;;;78.15;46.60;;;7.30;99.90;;;;;;6262464;22;20228;-82
2022/03/25 05:35:15;;;;;;;85.97;48.72;;;7.50;99.90;;;;;;6260879;23;20216;-85
2022/03/25 05:37:44;;;;;;;81.70;48.65;;;7.40;99.90;;;;;;6259510;23;20179;-84
2022/03/25 05:40:12;;;;;;;95.80;51.78;;;7.40;99.90;;;;;;6260147;22;20237;-85
2022/03/25 05:42:39;;;;;;;89.22;51.22;;;7.40;99.90;;;;;;6260263;22;20218;-82
2022/03/25 05:45:08;;;;;;;78.70;48.60;;;7.50;99.90;;;;;;6260319;23;20181;-84
2022/03/25 05:47:35;;;;;;;76.95;48.55;;;7.60;99.90;;;;;;6259895;22;20193;-84
2022/03/25 05:50:02;;;;;;;73.50;47.47;;;7.70;99.90;;;;;;6261716;23;20186;-82
2022/03/25 05:52:29;;;;;;;85.22;48.78;;;7.70;99.90;;;;;;6264802;22;20240;-82
2022/03/25 05:54:57;;;;;;;80.43;48.20;;;7.90;99.90;;;;;;6262881;23;20184;-83
2022/03/25 05:57:24;;;;;;;81.43;47.15;;;8.00;99.90;;;;;;6262520;23;20186;-83
2022/03/25 05:59:51;;;;;;;82.30;47.58;;;8.00;99.90;;;;;;6260283;22;20206;-81
2022/03/25 06:02:18;;;;;;;82.07;50.40;;;8.10;99.90;;;;;;6260972;22;20211;-85
2022/03/25 06:04:46;;;;;;;85.45;49.78;;;8.10;99.90;;;;;;6261788;23;20196;-83
2022/03/25 06:07:13;;;;;;;80.07;47.40;;;8.20;99.90;;;;;;6261481;22;20179;-81
2022/03/25 06:09:40;;;;;;;83.57;48.05;;;8.30;99.90;;;;;;6261214;23;20179;-81
2022/03/25 06:12:10;;;;;;;73.35;45.25;;;8.50;99.90;;;;;;6269842;22;20258;-81
2022/03/25 06:14:37;;;;;;;78.68;46.45;;;8.70;99.90;;;;;;6272795;22;20158;-80
2022/03/25 06:17:05;;;;;;;70.53;45.08;;;8.90;99.90;;;;;;6273276;22;20159;-81
2022/03/25 06:19:32;;;;;;;61.67;43.92;;;9.30;99.90;;;;;;6272819;22;20159;-80
2022/03/25 06:21:59;;;;;;;71.15;45.38;;;9.70;99.90;;;;;;6273031;22;20163;-81
2022/03/25 06:24:26;;;;;;;73.88;45.13;;;10.30;99.90;;;;;;6270865;22;20182;-82
2022/03/25 06:26:53;;;;;;;73.50;46.08;;;10.90;99.90;;;;;;6269770;22;20175;-85
2022/03/25 06:29:22;;;;;;;73.60;46.10;;;11.20;99.90;;;;;;6263483;23;20176;-83
2022/03/25 06:31:49;;;;;;;66.82;46.65;;;11.50;99.90;;;;;;6260514;23;20200;-86
2022/03/25 06:34:20;;;;;;;75.35;44.92;;;11.90;99.90;;;;;;6262206;22;20249;-84
2022/03/25 06:36:48;;;;;;;65.82;43.63;;;12.40;99.90;;;;;;6262022;23;20166;-84
2022/03/25 06:39:16;;;;;;;71.72;43.55;;;13.10;99.90;;;;;;6261129;22;20205;-84
2022/03/25 06:41:43;;;;;;;67.50;44.42;;;13.30;99.90;;;;;;6260969;22;20203;-82
2022/03/25 06:44:10;;;;;;;68.78;44.92;;;14.00;99.90;;;;;;6262364;22;20238;-82
2022/03/25 06:46:39;;;;;;;66.68;45.13;;;14.70;98.20;;;;;;6263064;22;20241;-84
2022/03/25 06:49:06;;;;;;;78.90;45.95;;;15.00;95.70;;;;;;6265869;23;20179;-81
2022/03/25 06:51:33;;;;;;;66.30;45.83;;;15.30;94.70;;;;;;6260881;23;20185;-85
2022/03/25 06:54:01;;;;;;;77.20;48.10;;;15.80;93.40;;;;;;6265938;22;20212;-86
2022/03/25 06:56:28;;;;;;;72.63;46.58;;;15.90;92.30;;;;;;6269843;22;20268;-79
2022/03/25 06:58:56;;;;;;;66.30;47.75;;;16.10;91.60;;;;;;6270062;22;20188;-81
2022/03/25 07:01:24;;;;;;;76.23;49.70;;;16.60;91.10;;;;;;6269992;22;20169;-82
2022/03/25 07:03:53;;;;;;;64.60;48.27;;;16.80;90.10;;;;;;6268888;22;20648;-81
2022/03/25 07:06:24;;;;;;;69.10;48.20;;;16.90;89.20;;;;;;6268121;22;20412;-85
2022/03/25 07:08:54;;;;;;;74.57;49.37;;;16.90;88.50;;;;;;6264393;22;20408;-83
2022/03/25 07:11:22;;;;;;;73.60;46.03;;;17.00;87.90;;;;;;6266407;22;20400;-82
2022/03/25 07:13:50;;;;;;;71.78;49.45;;;17.10;87.40;;;;;;6268443;22;20192;-82
2022/03/25 07:16:18;;;;;;;67.00;46.63;;;17.30;86.80;;;;;;6267020;23;20165;-82
2022/03/25 07:18:45;;;;;;;65.70;45.57;;;17.60;86.50;;;;;;6268468;23;20409;-82
2022/03/25 07:21:13;;;;;;;68.73;47.97;;;18.30;84.20;;;;;;6268539;22;20420;-82
2022/03/25 07:23:40;;;;;;;65.57;49.20;;;18.50;82.20;;;;;;6271371;22;20441;-81
2022/03/25 07:26:07;;;;;;;69.37;48.63;;;18.60;81.20;;;;;;6271729;22;20465;-81
2022/03/25 07:28:35;;;;;;;68.23;48.70;;;18.50;80.70;;;;;;6271481;22;20394;-81
2022/03/25 07:31:05;;;;;;;64.27;47.50;;;18.50;80.30;;;;;;6270491;22;20401;-81
2022/03/25 07:33:32;;;;;;;64.80;46.37;;;18.80;80.30;;;;;;6271547;22;20440;-83
2022/03/25 07:36:00;;;;;;;60.03;44.20;;;19.20;80.10;;;;;;6272270;22;20404;-81
2022/03/25 07:38:28;;;;;;;72.77;48.13;;;19.50;78.50;;;;;;6271859;22;20426;-81
2022/03/25 07:40:56;;;;;;;64.30;47.30;;;19.70;77.40;;;;;;6266146;22;20401;-80
2022/03/25 07:43:23;;;;;;;63.93;44.97;;;19.70;77.00;;;;;;6271612;22;20448;-80
2022/03/25 07:45:50;;;;;;;69.27;48.00;;;19.90;76.00;;;;;;6271751;22;20409;-79
2022/03/25 07:48:17;;;;;;;68.73;47.10;;;19.80;75.60;;;;;;6271800;22;20384;-80
2022/03/25 07:50:44;;;;;;;66.33;49.57;;;20.30;75.80;;;;;;6271897;22;20428;-79
2022/03/25 07:53:11;;;;;;;69.37;45.67;;;20.70;74.10;;;;;;6272512;22;20465;-80
2022/03/25 07:55:40;;;;;;;66.90;49.13;;;20.80;73.10;;;;;;6273793;22;20432;-84
2022/03/25 07:58:07;;;;;;;60.70;46.20;;;21.00;73.00;;;;;;6274531;22;20409;-80
2022/03/25 08:00:35;;;;;;;69.13;50.07;;;20.80;72.80;;;;;;6272900;22;20424;-83
2022/03/25 08:03:02;;;;;;;70.63;47.33;;;21.00;72.90;;;;;;6272812;22;20420;-84
2022/03/25 08:05:29;;;;;;;75.43;48.30;;;21.30;71.60;;;;;;6271297;22;20428;-83
2022/03/25 08:08:02;;;;;;;67.33;46.90;;;21.40;71.00;;;;;;6271452;22;20525;-84
2022/03/25 08:10:31;;;;;;;61.13;46.00;;;21.90;70.30;;;;;;6271643;23;20402;-81
2022/03/25 08:13:00;;;;;;;66.60;49.00;;;22.10;69.20;;;;;;6267591;22;20467;-84
2022/03/25 08:15:28;;;;;;;66.43;45.70;;;21.90;69.00;;;;;;6265901;22;20406;-87
2022/03/25 08:17:57;;;;;;;64.90;47.10;;;22.00;68.80;;;;;;6264626;23;20444;-83
2022/03/25 08:20:26;;;;;;;64.50;48.60;;;22.30;68.00;;;;;;6264134;22;20466;-84
2022/03/25 08:22:55;;;;;;;62.50;46.07;;;22.50;67.40;;;;;;6263653;22;20422;-84
2022/03/25 08:28:08;;;;;;;61.40;45.13;;;23.10;65.40;;;;;;6265149;23;20385;-85
2022/03/25 08:30:35;;;;;;;59.43;43.17;;;22.50;64.20;;;;;;6264055;23;20441;-85
2022/03/25 08:33:03;;;;;;;60.63;45.77;;;22.40;66.00;;;;;;6264308;22;20433;-84
2022/03/25 08:35:30;;;;;;;63.83;46.50;;;22.60;65.50;;;;;;6264461;22;20405;-85
2022/03/25 08:37:58;;;;;;;64.13;47.37;;;22.80;65.30;;;;;;6264465;23;21042;-86
2022/03/25 08:40:28;;;;;;;68.83;47.07;;;22.90;65.30;;;;;;6265127;23;20409;-84
2022/03/25 08:42:56;;;;;;;64.73;49.00;;;23.20;64.80;;;;;;6265231;22;20517;-85
2022/03/25 08:45:24;;;;;;;72.53;52.93;;;23.50;63.50;;;;;;6265870;23;20413;-85
2022/03/25 08:47:51;;;;;;;66.37;50.63;;;24.00;62.90;;;;;;6263852;23;20410;-82
2022/03/25 08:50:21;;;;;;;65.53;46.40;;;24.00;61.70;;;;;;6264181;22;20425;-86
2022/03/25 08:52:50;;;;;;;64.20;50.10;;;24.00;61.90;;;;;;6263522;22;20437;-85
2022/03/25 08:55:19;;;;;;;60.27;45.10;;;23.90;60.20;;;;;;6266979;22;20409;-83
2022/03/25 08:57:46;;;;;;;55.70;42.23;;;23.70;59.90;;;;;;6269567;23;20397;-87
2022/03/25 09:00:16;;;;;;;55.77;40.93;;;23.90;59.90;;;;;;6269188;23;20402;-84
2022/03/25 09:02:46;;;;;;;54.77;43.17;;;24.20;57.70;;;;;;6264924;22;20440;-86
2022/03/25 09:05:13;;;;;;;52.70;40.90;;;24.70;56.70;;;;;;6261968;22;20425;-83
2022/03/25 09:07:42;;;;;;;52.13;40.37;;;24.40;56.30;;;;;;6260904;23;20401;-83
2022/03/25 09:10:10;;;;;;;53.70;41.20;;;24.00;56.40;;;;;;6260137;23;20443;-83
2022/03/25 09:12:38;;;;;;;51.40;40.27;;;24.30;57.10;;;;;;6259107;22;20450;-84
2022/03/25 09:15:08;;;;;;;52.17;38.07;;;24.40;56.10;;;;;;6259852;23;20406;-83
2022/03/25 09:17:35;;;;;;;57.13;39.10;;;24.30;55.70;;;;;;6263081;23;20403;-84
2022/03/25 09:20:05;;;;;;;59.77;38.67;;;24.40;56.90;;;;;;6263832;22;20406;-84
2022/03/25 09:22:33;;;;;;;52.73;40.30;;;24.80;56.50;;;;;;6259280;22;20430;-84
2022/03/25 09:25:01;;;;;;;45.80;37.00;;;25.10;55.50;;;;;;6258954;23;20416;-84
2022/03/25 09:27:28;;;;;;;52.30;38.40;;;25.40;55.10;;;;;;6259427;22;20410;-82
2022/03/25 09:29:55;;;;;;;50.07;39.93;;;25.50;54.30;;;;;;6259776;23;20410;-84
2022/03/25 09:32:22;;;;;;;48.47;39.70;;;25.40;54.60;;;;;;6259694;22;20420;-83
2022/03/25 09:37:37;;;;;;;52.00;41.90;;;25.90;55.40;;;;;;6262959;22;20393;-85
2022/03/25 09:40:06;;;;;;;51.87;38.90;;;26.00;55.40;;;;;;6263892;23;20390;-84
2022/03/25 09:42:34;;;;;;;51.80;39.83;;;25.40;55.60;;;;;;6265674;22;20413;-84
2022/03/25 09:45:03;;;;;;;49.90;36.67;;;25.50;56.70;;;;;;6267244;22;20405;-86
2022/03/25 09:47:31;;;;;;;45.83;36.80;;;25.50;56.80;;;;;;6268962;22;20406;-81
2022/03/25 09:49:59;;;;;;;50.43;37.00;;;25.90;55.70;;;;;;6265568;22;20410;-82
2022/03/25 15:54:18;;;;;;;29.47;19.37;;;18.50;67.40;;;;;;6252429;22;20523;-72
2022/03/25 15:56:45;;;;;;;27.67;20.60;;;18.60;67.30;;;;;;6245066;22;20390;-71
2022/03/25 15:59:12;;;;;;;29.13;19.60;;;18.60;67.70;;;;;;6245901;22;20394;-70
2022/03/25 16:01:39;;;;;;;30.37;19.60;;;18.60;67.60;;;;;;6244277;23;20397;-71
2022/03/25 16:04:06;;;;;;;28.10;20.80;;;18.50;68.50;;;;;;6244131;22;20455;-71
2022/03/25 16:06:33;;;;;;;30.07;20.10;;;18.60;67.80;;;;;;6244059;22;20416;-70
2022/03/25 16:09:00;;;;;;;29.97;20.07;;;18.50;67.90;;;;;;6243222;23;20689;-70
2022/03/25 16:11:29;;;;;;;28.83;21.17;;;18.40;68.30;;;;;;6243676;23;20401;-69
2022/03/25 16:13:55;;;;;;;33.47;18.00;;;18.40;68.80;;;;;;6244841;22;20441;-71
2022/03/25 16:16:23;;;;;;;26.03;19.10;;;18.20;69.60;;;;;;6246461;23;20417;-70
2022/03/25 16:18:50;;;;;;;27.77;19.53;;;18.20;70.10;;;;;;6246570;23;20460;-71
2022/03/25 16:21:17;;;;;;;30.33;20.00;;;18.10;70.30;;;;;;6245937;23;20390;-70
2022/03/25 16:23:44;;;;;;;26.77;20.00;;;18.10;70.90;;;;;;6245443;22;20440;-71
2022/03/25 16:26:12;;;;;;;28.67;20.03;;;17.90;71.30;;;;;;6246255;23;20426;-71
2022/03/25 16:28:40;;;;;;;30.90;21.10;;;17.70;71.90;;;;;;6246858;23;20404;-72
2022/03/25 16:31:07;;;;;;;30.67;19.03;;;17.60;72.90;;;;;;6245589;23;20382;-71
2022/03/25 16:33:34;;;;;;;28.40;18.87;;;17.50;74.00;;;;;;6245053;22;21042;-71
2022/03/25 16:36:02;;;;;;;29.88;17.55;;;17.40;75.60;;;;;;6245941;22;20416;-70
2022/03/25 16:38:30;;;;;;;22.30;15.25;;;17.20;75.70;;;;;;6246173;23;20170;-70
2022/03/25 16:40:58;;;;;;;23.10;14.20;;;17.10;76.50;;;;;;6245301;23;20158;-72
2022/03/25 16:43:25;;;;;;;24.90;14.52;;;16.90;77.00;;;;;;6245459;22;20432;-71
2022/03/25 16:45:55;;;;;;;18.08;11.57;;;16.80;77.00;;;;;;6245139;23;20166;-70
2022/03/25 16:48:23;;;;;;;20.75;11.10;;;16.60;77.20;;;;;;6245689;22;20161;-70
2022/03/25 16:50:50;;;;;;;18.50;10.70;;;16.50;77.60;;;;;;6245333;23;20253;-71
2022/03/25 16:53:17;;;;;;;23.33;11.93;;;16.30;77.70;;;;;;6245796;22;20248;-70
2022/03/25 16:55:44;;;;;;;16.02;10.02;;;16.30;78.50;;;;;;6245709;22;20642;-70
2022/03/25 16:58:11;;;;;;;21.83;9.80;;;16.20;78.50;;;;;;6245373;23;20166;-71
2022/03/25 17:00:38;;;;;;;20.98;10.40;;;16.20;78.20;;;;;;6244622;23;20197;-70
2022/03/25 17:03:06;;;;;;;25.88;9.15;;;16.00;78.30;;;;;;6245816;22;20163;-71
2022/03/25 17:05:43;;;;;;;17.05;8.50;;;15.90;77.40;;;;;;6245992;23;20199;-71
2022/03/25 17:08:10;;;;;;;24.58;10.35;;;15.70;77.00;;;;;;6246297;22;20160;-69
2022/03/25 17:10:59;;;;;;;20.75;9.82;;;15.70;77.50;;;;;;6246353;22;20163;-71
2022/03/25 17:13:28;;;;;;;20.63;8.13;;;15.60;77.80;;;;;;6246031;22;20287;-70
2022/03/25 17:15:55;;;;;;;15.02;7.45;;;15.50;77.20;;;;;;6245977;23;20160;-70
2022/03/25 17:18:23;;;;;;;17.60;7.70;;;15.40;77.10;;;;;;6244496;23;20190;-71
2022/03/25 17:20:50;;;;;;;13.88;7.55;;;15.30;77.00;;;;;;6244208;23;20214;-70
2022/03/25 17:23:18;;;;;;;13.10;6.15;;;15.30;76.90;;;;;;6245525;22;20195;-70
2022/03/25 17:25:45;;;;;;;15.95;8.43;;;15.20;75.30;;;;;;6244125;22;20156;-72
2022/03/25 17:28:12;;;;;;;14.35;7.05;;;15.20;75.10;;;;;;6245019;23;20171;-71
2022/03/25 17:30:39;;;;;;;15.60;6.13;;;15.10;74.80;;;;;;6244785;23;20168;-71
2022/03/25 17:33:06;;;;;;;9.20;5.75;;;15.00;75.20;;;;;;6244759;22;20163;-70
2022/03/25 17:35:37;;;;;;;11.38;7.75;;;14.80;75.10;;;;;;6245001;23;20179;-71
2022/03/25 17:38:06;;;;;;;14.38;6.63;;;14.80;74.70;;;;;;6246052;23;20160;-71
2022/03/25 17:40:34;;;;;;;15.82;5.95;;;14.60;74.40;;;;;;6245846;22;20480;-72
2022/03/25 17:43:02;;;;;;;14.15;5.95;;;14.50;74.20;;;;;;6245240;23;20175;-72
2022/03/25 17:45:29;;;;;;;10.23;6.75;;;14.40;74.30;;;;;;6245226;22;20254;-71
2022/03/25 17:47:56;;;;;;;13.40;7.50;;;14.30;74.40;;;;;;6245640;23;20159;-71
2022/03/25 17:50:23;;;;;;;15.88;7.93;;;14.20;74.40;;;;;;6245008;22;20225;-71
2022/03/25 17:52:52;;;;;;;26.35;10.27;;;14.10;74.40;;;;;;6244955;23;20657;-70
2022/03/25 17:55:19;;;;;;;17.50;10.18;;;14.00;74.10;;;;;;6245160;22;20203;-73
2022/03/25 17:57:47;;;;;;;16.00;8.68;;;13.90;74.60;;;;;;6245790;23;20245;-71
2022/03/25 18:00:17;;;;;;;16.15;9.00;;;13.80;74.40;;;;;;6244623;23;20210;-72
2022/03/25 18:02:47;;;;;;;15.40;9.63;;;13.70;74.40;;;;;;6245483;23;20166;-71
2022/03/25 18:05:14;;;;;;;15.70;9.82;;;13.70;74.50;;;;;;6245244;22;20249;-70
2022/03/25 18:07:42;;;;;;;24.23;12.15;;;13.60;74.50;;;;;;6245107;23;20198;-71
2022/03/25 18:10:11;;;;;;;22.75;11.60;;;13.60;74.10;;;;;;6244518;23;20172;-71
2022/03/25 18:12:38;;;;;;;26.48;12.40;;;13.50;74.30;;;;;;6245283;23;20155;-70
2022/03/25 18:15:07;;;;;;;24.02;13.27;;;13.50;74.40;;;;;;6245847;22;20211;-70
2022/03/25 18:17:34;;;;;;;21.15;12.85;;;13.40;74.90;;;;;;6245545;22;20163;-71
2022/03/25 18:20:01;;;;;;;26.83;16.10;;;13.40;74.70;;;;;;6244811;22;20166;-70
2022/03/25 18:22:28;;;;;;;26.05;15.35;;;13.40;74.90;;;;;;6244733;23;20254;-72
2022/03/25 18:24:56;;;;;;;27.33;17.00;;;13.30;74.90;;;;;;6245518;22;20202;-71
2022/03/25 18:27:24;;;;;;;24.55;16.33;;;13.30;75.20;;;;;;6245940;22;20170;-71
2022/03/25 18:29:51;;;;;;;29.20;17.20;;;13.30;75.40;;;;;;6244633;23;20166;-71
2022/03/25 18:32:18;;;;;;;33.15;19.60;;;13.20;75.60;;;;;;6245645;22;20174;-71
2022/03/25 18:34:45;;;;;;;31.92;17.20;;;13.20;75.30;;;;;;6244690;22;20203;-71
2022/03/25 18:37:12;;;;;;;27.63;16.95;;;13.10;75.40;;;;;;6244344;23;20166;-71
2022/03/25 18:39:41;;;;;;;23.63;15.27;;;13.00;75.60;;;;;;6244477;22;20166;-70
2022/03/25 18:42:09;;;;;;;26.42;16.85;;;12.90;75.60;;;;;;6245256;23;20534;-70
2022/03/25 18:44:39;;;;;;;23.63;15.45;;;12.80;75.70;;;;;;6244860;22;20205;-70
2022/03/25 18:47:06;;;;;;;25.75;15.25;;;12.70;76.10;;;;;;6244800;23;20170;-70
2022/03/25 18:49:33;;;;;;;30.25;15.30;;;12.70;76.30;;;;;;6244897;22;20236;-71
2022/03/25 18:52:02;;;;;;;20.70;14.20;;;12.60;76.50;;;;;;6244949;23;20169;-71
2022/03/25 18:54:32;;;;;;;31.48;15.55;;;12.50;77.10;;;;;;6246367;22;20275;-71
2022/03/25 18:57:11;;;;;;;28.52;14.55;;;12.50;77.30;;;;;;6248504;22;20231;-72